Saint Paul, MN (55114)

1:59 PM CST on December 17, 2014 (GMT -0600)
Blair Manor, Midway | Change Station
CLOSE
Current Station
Personal Weather Station
Location: St Paul, MN
Elevation: 928 ft
Nearby Weather Stations

Elev 928 ft 44.96 °N, 93.17 °W | Updated 3 seconds ago

Partly Cloudy
Partly Cloudy
19.0 °F
Feels Like 19 °F
N
2.5
Wind Variable Wind from NNW
Gusts 3.8 mph

Today
High -- | Low -- °F
--% Chance of Precip.
Yesterday
High -- | Low -- °F
Precip. -- in
7:45 AM 4:32 PM
Waning Crescent, 20% visible
Pressure 30.35 in
Visibility 10.0 miles
Clouds Scattered Clouds 2000 ft
Windchill 19 °F
Dew Point 11 °F
Humidity 69%
Rainfall 0.00 in
Snow Depth Not available.
UV 1 out of 12
Pollen .10 out of 12
Air Quality Not available.
Flu Activity Not available.
METAR KMSP 171953Z 34007KT 10SM SCT020 M07/M12 A3029 RMK AO2 SLP275 T10721122

More Conditions Fewer Conditions

Pressure 30.35 in
Visibility 10.0 miles
Clouds Scattered Clouds 2000 ft
Windchill 19 °F
Dew Point 11 °F
Humidity 69%
Rainfall 0.00 in
Snow Depth Not available.
UV 1 out of 12
Pollen .10 out of 12
Air Quality Not available.
Flu Activity Not available.
METAR KMSP 171953Z 34007KT 10SM SCT020 M07/M12 A3029 RMK AO2 SLP275 T10721122

More Conditions Fewer Conditions

10-Day Weather Forecast

Almanac

Astronomy

Dec. 17, 2014 Rise Set
Actual Time
Civil Twilight
Nautical Twilight
Astronomical Twilight
Moon
Length of Visible Light
Length of Day
Tomorrow will be .
, % of the Moon is Illuminated

Today's Extremes

State Highs State Lows

Community

WunderPhotos

Upload Photos

1,778,797 photos uploaded!

WunderBlogs® & News

Nearby

Air Quality

  Air Quality AQ Index Pollutant
Not available.

Snow Depth

Station Depth Elevation

Earthquake Activity

City Distance Mag. Time & Date
Minimum magnitude displayed is 2.5.

Coastal Water Temperatures

Place Temperature

Nearby Weather Stations